sensor_id;sensor_type;location;lat;lon;timestamp;pressure;altitude;pressure_sealevel;temperature;humidity
5238;BME280;2639;49.700;7.962;2023-08-17T03:02:11;98873.78;;;17.95;100.00
5238;BME280;2639;49.700;7.962;2023-08-17T03:03:14;98876.38;;;17.95;100.00
5238;BME280;2639;49.700;7.962;2023-08-17T03:04:16;98876.25;;;17.92;100.00
5238;BME280;2639;49.700;7.962;2023-08-17T03:05:19;98883.66;;;17.84;100.00
5238;BME280;2639;49.700;7.962;2023-08-17T03:06:21;98885.19;;;17.80;100.00
5238;BME280;2639;49.700;7.962;2023-08-17T03:07:23;98879.91;;;17.79;100.00
5238;BME280;2639;49.700;7.962;2023-08-17T03:08:25;98875.47;;;17.76;100.00
5238;BME280;2639;49.700;7.962;2023-08-17T03:09:27;98887.50;;;17.74;100.00
5238;BME280;2639;49.700;7.962;2023-08-17T03:10:30;98883.91;;;17.72;100.00
5238;BME280;2639;49.700;7.962;2023-08-17T03:11:32;98888.16;;;17.70;100.00
5238;BME280;2639;49.700;7.962;2023-08-17T03:12:35;98887.34;;;17.71;100.00
5238;BME280;2639;49.700;7.962;2023-08-17T03:13:38;98886.53;;;17.72;100.00
5238;BME280;2639;49.700;7.962;2023-08-17T03:14:41;98883.91;;;17.72;100.00
5238;BME280;2639;49.700;7.962;2023-08-17T03:15:43;98883.03;;;17.72;100.00
5238;BME280;2639;49.700;7.962;2023-08-17T03:16:46;98877.09;;;17.74;100.00
5238;BME280;2639;49.700;7.962;2023-08-17T03:17:50;98889.25;;;17.75;100.00
5238;BME280;2639;49.700;7.962;2023-08-17T03:18:53;98877.25;;;17.77;100.00
5238;BME280;2639;49.700;7.962;2023-08-17T03:19:55;98876.44;;;17.78;100.00
5238;BME280;2639;49.700;7.962;2023-08-17T03:21:01;98875.59;;;17.79;100.00
5238;BME280;2639;49.700;7.962;2023-08-17T03:22:04;98873.91;;;17.80;100.00
5238;BME280;2639;49.700;7.962;2023-08-17T03:23:05;98878.06;;;17.76;100.00
5238;BME280;2639;49.700;7.962;2023-08-17T03:24:09;98877.09;;;17.74;100.00
5238;BME280;2639;49.700;7.962;2023-08-17T03:25:11;98876.22;;;17.74;100.00
5238;BME280;2639;49.700;7.962;2023-08-17T03:26:15;98877.09;;;17.74;100.00
5238;BME280;2639;49.700;7.962;2023-08-17T03:27:17;98873.63;;;17.74;100.00
5238;BME280;2639;49.700;7.962;2023-08-17T03:28:20;98877.09;;;17.74;100.00
5238;BME280;2639;49.700;7.962;2023-08-17T03:29:22;98882.28;;;17.74;100.00
5238;BME280;2639;49.700;7.962;2023-08-17T03:30:25;98884.06;;;17.75;100.00
5238;BME280;2639;49.700;7.962;2023-08-17T03:31:27;98882.44;;;17.77;100.00
5238;BME280;2639;49.700;7.962;2023-08-17T03:32:30;98887.78;;;17.80;100.00
5238;BME280;2639;49.700;7.962;2023-08-17T03:33:34;98884.41;;;17.81;100.00
5238;BME280;2639;49.700;7.962;2023-08-17T03:34:36;98881.81;;;17.81;100.00
5238;BME280;2639;49.700;7.962;2023-08-17T03:35:38;98883.59;;;17.82;100.00
5238;BME280;2639;49.700;7.962;2023-08-17T03:36:42;98886.22;;;17.82;100.00
5238;BME280;2639;49.700;7.962;2023-08-17T03:37:44;98881.00;;;17.82;100.00
5238;BME280;2639;49.700;7.962;2023-08-17T03:38:48;98879.03;;;17.78;100.00
5238;BME280;2639;49.700;7.962;2023-08-17T03:39:49;98882.44;;;17.77;100.00
5238;BME280;2639;49.700;7.962;2023-08-17T03:40:52;98876.34;;;17.77;100.00
5238;BME280;2639;49.700;7.962;2023-08-17T03:41:56;98877.25;;;17.77;100.00
5238;BME280;2639;49.700;7.962;2023-08-17T03:43:00;98878.16;;;17.78;100.00
5238;BME280;2639;49.700;7.962;2023-08-17T03:44:02;98865.16;;;17.78;100.00
5238;BME280;2639;49.700;7.962;2023-08-17T03:45:07;98871.28;;;17.80;100.00
5238;BME280;2639;49.700;7.962;2023-08-17T03:46:09;98869.63;;;17.80;100.00
5238;BME280;2639;49.700;7.962;2023-08-17T03:47:13;98868.81;;;17.81;100.00
5238;BME280;2639;49.700;7.962;2023-08-17T03:48:16;98869.88;;;17.85;100.00
5238;BME280;2639;49.700;7.962;2023-08-17T03:49:20;98861.25;;;17.86;100.00
5238;BME280;2639;49.700;7.962;2023-08-17T03:50:22;98866.53;;;17.87;100.00
5238;BME280;2639;49.700;7.962;2023-08-17T03:51:24;98860.50;;;17.88;100.00
5238;BME280;2639;49.700;7.962;2023-08-17T03:52:26;98867.50;;;17.90;100.00
5238;BME280;2639;49.700;7.962;2023-08-17T03:53:29;98863.94;;;17.87;100.00
5238;BME280;2639;49.700;7.962;2023-08-17T03:54:32;98868.94;;;17.84;100.00
5238;BME280;2639;49.700;7.962;2023-08-17T03:55:35;98870.63;;;17.82;100.00
5238;BME280;2639;49.700;7.962;2023-08-17T03:56:37;98867.03;;;17.80;100.00
5238;BME280;2639;49.700;7.962;2023-08-17T03:57:42;98865.22;;;17.79;100.00
5238;BME280;2639;49.700;7.962;2023-08-17T03:58:44;98865.34;;;17.81;100.00
5238;BME280;2639;49.700;7.962;2023-08-17T03:59:47;98867.94;;;17.81;100.00
5238;BME280;2639;49.700;7.962;2023-08-17T04:00:49;98864.50;;;17.82;100.00
5238;BME280;2639;49.700;7.962;2023-08-17T04:01:59;98867.19;;;17.83;100.00
5238;BME280;2639;49.700;7.962;2023-08-17T04:03:01;98865.66;;;17.87;100.00
5238;BME280;2639;49.700;7.962;2023-08-17T04:04:03;98867.50;;;17.90;100.00
5238;BME280;2639;49.700;7.962;2023-08-17T04:05:07;98871.06;;;17.92;100.00
5238;BME280;2639;49.700;7.962;2023-08-17T04:06:09;98865.13;;;17.94;100.00
5238;BME280;2639;49.700;7.962;2023-08-17T04:07:20;98863.53;;;17.98;100.00
5238;BME280;2639;49.700;7.962;2023-08-17T04:08:22;98867.97;;;18.00;100.00
5238;BME280;2639;49.700;7.962;2023-08-17T04:09:25;98862.88;;;18.02;100.00
5238;BME280;2639;49.700;7.962;2023-08-17T04:10:27;98868.06;;;18.02;100.00
5238;BME280;2639;49.700;7.962;2023-08-17T04:11:29;98874.22;;;18.04;100.00
5238;BME280;2639;49.700;7.962;2023-08-17T04:12:31;98872.50;;;18.04;100.00
5238;BME280;2639;49.700;7.962;2023-08-17T04:13:33;98871.63;;;18.04;100.00
5238;BME280;2639;49.700;7.962;2023-08-17T04:14:36;98880.38;;;18.06;100.00
5238;BME280;2639;49.700;7.962;2023-08-17T04:15:38;98884.66;;;18.05;100.00
5238;BME280;2639;49.700;7.962;2023-08-17T04:16:41;98876.66;;;18.01;100.00
5238;BME280;2639;49.700;7.962;2023-08-17T04:17:43;98883.53;;;17.99;100.00
5238;BME280;2639;49.700;7.962;2023-08-17T04:18:46;98888.72;;;17.99;100.00
5238;BME280;2639;49.700;7.962;2023-08-17T04:19:48;98886.91;;;17.98;100.00
5238;BME280;2639;49.700;7.962;2023-08-17T04:20:52;98880.09;;;18.00;100.00
5238;BME280;2639;49.700;7.962;2023-08-17T04:21:56;98880.09;;;18.00;100.00
5238;BME280;2639;49.700;7.962;2023-08-17T04:22:59;98891.38;;;18.00;100.00
5238;BME280;2639;49.700;7.962;2023-08-17T04:24:01;98887.06;;;18.01;100.00
5238;BME280;2639;49.700;7.962;2023-08-17T04:25:05;98880.09;;;18.00;100.00
5238;BME280;2639;49.700;7.962;2023-08-17T04:26:07;98883.53;;;17.99;100.00
5238;BME280;2639;49.700;7.962;2023-08-17T04:27:09;98880.91;;;17.99;100.00
5238;BME280;2639;49.700;7.962;2023-08-17T04:28:12;98881.84;;;18.01;100.00
5238;BME280;2639;49.700;7.962;2023-08-17T04:29:17;98880.09;;;18.00;100.00
5238;BME280;2639;49.700;7.962;2023-08-17T04:30:19;98882.69;;;18.00;100.00
5238;BME280;2639;49.700;7.962;2023-08-17T04:31:28;98885.28;;;18.00;100.00
5238;BME280;2639;49.700;7.962;2023-08-17T04:32:34;98884.44;;;18.01;100.00
5238;BME280;2639;49.700;7.962;2023-08-17T04:33:37;98891.44;;;18.02;100.00
5238;BME280;2639;49.700;7.962;2023-08-17T04:34:41;98889.72;;;18.02;100.00
5238;BME280;2639;49.700;7.962;2023-08-17T04:35:46;98898.59;;;18.06;100.00
5238;BME280;2639;49.700;7.962;2023-08-17T04:36:49;98892.56;;;18.07;100.00
5238;BME280;2639;49.700;7.962;2023-08-17T04:37:52;98893.59;;;18.11;100.00
5238;BME280;2639;49.700;7.962;2023-08-17T04:38:54;98895.38;;;18.12;100.00
5238;BME280;2639;49.700;7.962;2023-08-17T04:39:58;98892.84;;;18.13;100.00
5238;BME280;2639;49.700;7.962;2023-08-17T04:41:00;98888.53;;;18.14;100.00
5238;BME280;2639;49.700;7.962;2023-08-17T04:42:04;98889.41;;;18.14;100.00
5238;BME280;2639;49.700;7.962;2023-08-17T04:43:09;98886.03;;;18.15;100.00
5238;BME280;2639;49.700;7.962;2023-08-17T04:44:12;98891.34;;;18.18;100.00
5238;BME280;2639;49.700;7.962;2023-08-17T04:45:14;98889.72;;;18.20;100.00
5238;BME280;2639;49.700;7.962;2023-08-17T04:46:19;98889.84;;;18.23;100.00
5238;BME280;2639;49.700;7.962;2023-08-17T04:47:21;98894.31;;;18.26;100.00
5238;BME280;2639;49.700;7.962;2023-08-17T04:48:24;98890.00;;;18.26;100.00
5238;BME280;2639;49.700;7.962;2023-08-17T04:49:26;98895.34;;;18.29;100.00
5238;BME280;2639;49.700;7.962;2023-08-17T04:50:29;98895.34;;;18.29;100.00
5238;BME280;2639;49.700;7.962;2023-08-17T04:51:31;98905.75;;;18.29;100.00
5238;BME280;2639;49.700;7.962;2023-08-17T04:52:35;98904.09;;;18.32;100.00
5238;BME280;2639;49.700;7.962;2023-08-17T04:53:37;98906.75;;;18.33;100.00
5238;BME280;2639;49.700;7.962;2023-08-17T04:54:40;98904.25;;;18.35;100.00
5238;BME280;2639;49.700;7.962;2023-08-17T04:55:42;98909.44;;;18.35;100.00
5238;BME280;2639;49.700;7.962;2023-08-17T04:56:45;98904.38;;;18.38;100.00
5238;BME280;2639;49.700;7.962;2023-08-17T04:57:47;98903.63;;;18.40;100.00
5238;BME280;2639;49.700;7.962;2023-08-17T04:58:51;98906.31;;;18.42;100.00
5238;BME280;2639;49.700;7.962;2023-08-17T04:59:53;98905.50;;;18.43;100.00
5238;BME280;2639;49.700;7.962;2023-08-17T07:38:25;98949.97;;;19.66;100.00
5238;BME280;2639;49.700;7.962;2023-08-17T07:39:31;98945.66;;;19.66;100.00
5238;BME280;2639;49.700;7.962;2023-08-17T07:40:33;98950.31;;;19.73;100.00
5238;BME280;2639;49.700;7.962;2023-08-17T07:41:38;98953.72;;;19.72;100.00
5238;BME280;2639;49.700;7.962;2023-08-17T07:42:40;98955.59;;;19.75;100.00
5238;BME280;2639;49.700;7.962;2023-08-17T07:43:43;98953.03;;;19.76;100.00
5238;BME280;2639;49.700;7.962;2023-08-17T07:44:45;98956.47;;;19.75;100.00
5238;BME280;2639;49.700;7.962;2023-08-17T07:45:53;98951.31;;;19.77;100.00
5238;BME280;2639;49.700;7.962;2023-08-17T07:46:55;98952.16;;;19.76;100.00
5238;BME280;2639;49.700;7.962;2023-08-17T07:47:58;98950.63;;;19.81;100.00
5238;BME280;2639;49.700;7.962;2023-08-17T07:48:59;98952.53;;;19.85;100.00
5238;BME280;2639;49.700;7.962;2023-08-17T07:50:03;98952.53;;;19.85;100.00
5238;BME280;2639;49.700;7.962;2023-08-17T07:51:08;98956.91;;;19.86;100.00
5238;BME280;2639;49.700;7.962;2023-08-17T07:52:11;98945.72;;;19.89;100.00
5238;BME280;2639;49.700;7.962;2023-08-17T07:53:13;98945.09;;;19.94;100.00
5238;BME280;2639;49.700;7.962;2023-08-17T07:54:17;98947.97;;;20.01;100.00
5238;BME280;2639;49.700;7.962;2023-08-17T07:55:19;98942.97;;;20.07;100.00
5238;BME280;2639;49.700;7.962;2023-08-17T07:56:21;98944.88;;;20.11;100.00
5238;BME280;2639;49.700;7.962;2023-08-17T07:57:23;98945.47;;;20.04;100.00
5238;BME280;2639;49.700;7.962;2023-08-17T07:58:26;98940.94;;;20.00;100.00
5238;BME280;2639;49.700;7.962;2023-08-17T07:59:28;98940.25;;;20.04;100.00
5238;BME280;2639;49.700;7.962;2023-08-17T08:00:33;98942.09;;;20.06;100.00
5238;BME280;2639;49.700;7.962;2023-08-17T08:01:35;98941.06;;;20.03;100.00
5238;BME280;2639;49.700;7.962;2023-08-17T08:02:37;98939.28;;;20.02;100.00
5238;BME280;2639;49.700;7.962;2023-08-17T08:03:39;98936.59;;;19.99;100.00
5238;BME280;2639;49.700;7.962;2023-08-17T08:04:42;98940.84;;;19.96;100.00
5238;BME280;2639;49.700;7.962;2023-08-17T08:05:44;98939.19;;;19.99;100.00
5238;BME280;2639;49.700;7.962;2023-08-17T08:06:47;98932.44;;;20.04;100.00
5238;BME280;2639;49.700;7.962;2023-08-17T08:07:49;98941.22;;;20.06;100.00
5238;BME280;2639;49.700;7.962;2023-08-17T08:08:52;98942.88;;;20.04;100.00
5238;BME280;2639;49.700;7.962;2023-08-17T08:09:55;98941.84;;;20.00;100.00
5238;BME280;2639;49.700;7.962;2023-08-17T08:10:58;98942.88;;;20.04;100.00
5238;BME280;2639;49.700;7.962;2023-08-17T08:12:01;98944.50;;;20.02;100.00
5238;BME280;2639;49.700;7.962;2023-08-17T08:13:04;98939.28;;;20.02;100.00
5238;BME280;2639;49.700;7.962;2023-08-17T08:14:06;98944.50;;;20.02;100.00
5238;BME280;2639;49.700;7.962;2023-08-17T08:15:09;98946.28;;;20.03;100.00
5238;BME280;2639;49.700;7.962;2023-08-17T08:16:11;98939.19;;;19.99;100.00
5238;BME280;2639;49.700;7.962;2023-08-17T08:17:16;98939.19;;;19.99;100.00
5238;BME280;2639;49.700;7.962;2023-08-17T08:18:18;98941.22;;;20.06;100.00
5238;BME280;2639;49.700;7.962;2023-08-17T08:19:21;98931.78;;;20.09;100.00
5238;BME280;2639;49.700;7.962;2023-08-17T08:20:23;98933.59;;;20.12;100.00
5238;BME280;2639;49.700;7.962;2023-08-17T08:21:26;98924.31;;;20.18;100.00
5238;BME280;2639;49.700;7.962;2023-08-17T08:22:28;98929.84;;;20.26;100.00
5238;BME280;2639;49.700;7.962;2023-08-17T08:23:31;98930.91;;;20.31;100.00
5238;BME280;2639;49.700;7.962;2023-08-17T08:24:33;98927.66;;;20.37;100.00
5238;BME280;2639;49.700;7.962;2023-08-17T08:25:41;98928.53;;;20.37;100.00
5238;BME280;2639;49.700;7.962;2023-08-17T08:26:43;98935.53;;;20.38;100.00
5238;BME280;2639;49.700;7.962;2023-08-17T08:27:46;98932.22;;;20.43;100.00
5238;BME280;2639;49.700;7.962;2023-08-17T08:28:47;98932.94;;;20.38;100.00
5238;BME280;2639;49.700;7.962;2023-08-17T08:29:50;98928.53;;;20.37;100.00
5238;BME280;2639;49.700;7.962;2023-08-17T08:30:52;98932.09;;;20.39;100.00
5238;BME280;2639;49.700;7.962;2023-08-17T08:31:55;98927.72;;;20.38;100.00
5238;BME280;2639;49.700;7.962;2023-08-17T08:32:58;98922.84;;;20.25;100.00
5238;BME280;2639;49.700;7.962;2023-08-17T08:34:02;98925.63;;;20.30;100.00
5238;BME280;2639;49.700;7.962;2023-08-17T08:35:04;98920.41;;;20.30;100.00
5238;BME280;2639;49.700;7.962;2023-08-17T08:36:07;98920.53;;;20.33;100.00
5238;BME280;2639;49.700;7.962;2023-08-17T08:37:09;98918.00;;;20.34;100.00
5238;BME280;2639;49.700;7.962;2023-08-17T08:38:13;98917.28;;;20.38;100.00
5238;BME280;2639;49.700;7.962;2023-08-17T08:39:15;98919.22;;;20.44;100.00
5238;BME280;2639;49.700;7.962;2023-08-17T08:40:19;98916.75;;;20.47;100.00
5238;BME280;2639;49.700;7.962;2023-08-17T08:41:25;98929.03;;;20.50;100.00
5238;BME280;2639;49.700;7.962;2023-08-17T08:42:29;98919.47;;;20.50;100.00
5238;BME280;2639;49.700;7.962;2023-08-17T08:43:30;98925.72;;;20.54;100.00
5238;BME280;2639;49.700;7.962;2023-08-17T08:44:33;98927.41;;;20.53;100.00
5238;BME280;2639;49.700;7.962;2023-08-17T08:45:35;98935.91;;;20.48;100.00
5238;BME280;2639;49.700;7.962;2023-08-17T08:46:40;98941.13;;;20.48;100.00
5238;BME280;2639;49.700;7.962;2023-08-17T08:47:44;98934.09;;;20.47;100.00
5238;BME280;2639;49.700;7.962;2023-08-17T08:48:49;98941.00;;;20.45;100.00
5238;BME280;2639;49.700;7.962;2023-08-17T08:49:58;98938.25;;;20.42;100.00
5238;BME280;2639;49.700;7.962;2023-08-17T08:51:03;98934.00;;;20.44;100.00
5238;BME280;2639;49.700;7.962;2023-08-17T08:52:13;98939.38;;;20.48;100.00
5238;BME280;2639;49.700;7.962;2023-08-17T08:53:21;98944.69;;;20.50;100.00
5238;BME280;2639;49.700;7.962;2023-08-17T08:54:25;98948.34;;;20.55;100.00
5238;BME280;2639;49.700;7.962;2023-08-17T08:55:31;98944.22;;;20.60;100.00
5238;BME280;2639;49.700;7.962;2023-08-17T08:56:41;98941.72;;;20.63;100.00
5238;BME280;2639;49.700;7.962;2023-08-17T08:57:49;98936.50;;;20.63;100.00
5238;BME280;2639;49.700;7.962;2023-08-17T08:58:53;98941.94;;;20.69;100.00
5238;BME280;2639;49.700;7.962;2023-08-17T08:59:57;98945.28;;;20.65;100.00
5238;BME280;2639;49.700;7.962;2023-08-17T09:01:00;98946.94;;;20.63;100.00
5238;BME280;2639;49.700;7.962;2023-08-17T09:02:03;98944.22;;;20.60;100.00
5238;BME280;2639;49.700;7.962;2023-08-17T09:03:05;98944.28;;;20.62;100.00
5238;BME280;2639;49.700;7.962;2023-08-17T09:04:08;98946.94;;;20.63;100.00
5238;BME280;2639;49.700;7.962;2023-08-17T09:05:11;98940.81;;;20.63;100.00
5238;BME280;2639;49.700;7.962;2023-08-17T09:06:15;98942.38;;;20.57;100.00
5238;BME280;2639;49.700;7.962;2023-08-17T09:07:22;98942.31;;;20.56;100.00
5238;BME280;2639;49.700;7.962;2023-08-17T09:08:28;98934.25;;;20.50;100.00
5238;BME280;2639;49.700;7.962;2023-08-17T09:09:31;98939.69;;;20.56;100.00
5238;BME280;2639;49.700;7.962;2023-08-17T09:10:34;98936.38;;;20.60;100.00
5238;BME280;2639;49.700;7.962;2023-08-17T09:11:41;98934.78;;;20.64;100.00
5238;BME280;2639;49.700;7.962;2023-08-17T09:12:46;98927.97;;;20.67;100.00
5238;BME280;2639;49.700;7.962;2023-08-17T09:13:50;98935.31;;;20.77;100.00
5238;BME280;2639;49.700;7.962;2023-08-17T09:14:54;98931.97;;;20.81;100.00
5238;BME280;2639;49.700;7.962;2023-08-17T09:15:59;98927.69;;;20.84;100.00
5238;BME280;2639;49.700;7.962;2023-08-17T09:17:08;98932.91;;;20.84;100.00
5238;BME280;2639;49.700;7.962;2023-08-17T09:18:10;98936.63;;;20.90;100.00
5238;BME280;2639;49.700;7.962;2023-08-17T09:19:14;98929.09;;;20.98;100.00
5238;BME280;2639;49.700;7.962;2023-08-17T09:20:38;98932.88;;;21.06;100.00
5238;BME280;2639;49.700;7.962;2023-08-17T09:21:47;98929.63;;;21.13;100.00
5238;BME280;2639;49.700;7.962;2023-08-17T09:22:52;98929.03;;;21.20;100.00
5238;BME280;2639;49.700;7.962;2023-08-17T09:23:56;98932.69;;;21.26;100.00
5238;BME280;2639;49.700;7.962;2023-08-17T09:25:01;98931.97;;;21.30;100.00
5238;BME280;2639;49.700;7.962;2023-08-17T09:26:08;98932.09;;;21.33;100.00
5238;BME280;2639;49.700;7.962;2023-08-17T09:27:13;98936.56;;;21.37;100.00
5238;BME280;2639;49.700;7.962;2023-08-17T09:28:17;98938.38;;;21.39;100.00
5238;BME280;2639;49.700;7.962;2023-08-17T09:29:25;98938.28;;;21.36;100.00
5238;BME280;2639;49.700;7.962;2023-08-17T09:30:28;98932.09;;;21.33;100.00
5238;BME280;2639;49.700;7.962;2023-08-17T09:31:39;98933.84;;;21.34;100.00
5238;BME280;2639;49.700;7.962;2023-08-17T09:32:46;98934.09;;;21.40;100.00
5238;BME280;2639;49.700;7.962;2023-08-17T09:33:51;98941.97;;;21.41;100.00
5238;BME280;2639;49.700;7.962;2023-08-17T09:34:54;98933.34;;;21.44;100.00
5238;BME280;2639;49.700;7.962;2023-08-17T09:35:59;98936.97;;;21.48;100.00
5238;BME280;2639;49.700;7.962;2023-08-17T09:37:03;98932.72;;;21.51;100.00
5238;BME280;2639;49.700;7.962;2023-08-17T09:38:05;98939.75;;;21.52;100.00
5238;BME280;2639;49.700;7.962;2023-08-17T09:39:10;98938.06;;;21.54;100.00
5238;BME280;2639;49.700;7.962;2023-08-17T09:40:15;98940.63;;;21.53;100.00
5238;BME280;2639;49.700;7.962;2023-08-17T09:41:23;98937.84;;;21.48;100.00
5238;BME280;2639;49.700;7.962;2023-08-17T09:42:34;98937.84;;;21.48;100.00
5238;BME280;2639;49.700;7.962;2023-08-17T09:43:38;98944.97;;;21.52;100.00
5238;BME280;2639;49.700;7.962;2023-08-17T09:44:42;98934.44;;;21.49;100.00
5238;BME280;2639;49.700;7.962;2023-08-17T09:45:45;98938.06;;;21.54;100.00
5238;BME280;2639;49.700;7.962;2023-08-17T09:46:51;98933.81;;;21.58;100.00
5238;BME280;2639;49.700;7.962;2023-08-17T09:47:59;98931.19;;;21.56;100.00
5238;BME280;2639;49.700;7.962;2023-08-17T09:49:05;98931.34;;;21.61;100.00
5238;BME280;2639;49.700;7.962;2023-08-17T09:50:08;98919.16;;;21.61;100.00
5238;BME280;2639;49.700;7.962;2023-08-17T09:51:14;98928.97;;;21.69;100.00
5238;BME280;2639;49.700;7.962;2023-08-17T09:52:21;98919.47;;;21.71;100.00
5238;BME280;2639;49.700;7.962;2023-08-17T09:53:26;98921.44;;;21.78;100.00
5238;BME280;2639;49.700;7.962;2023-08-17T09:54:30;98912.88;;;21.82;100.00
5238;BME280;2639;49.700;7.962;2023-08-17T09:55:33;98908.66;;;21.87;100.00
5238;BME280;2639;49.700;7.962;2023-08-17T09:56:35;98906.25;;;21.93;100.00
5238;BME280;2639;49.700;7.962;2023-08-17T09:57:46;98912.66;;;22.03;100.00
5238;BME280;2639;49.700;7.962;2023-08-17T09:58:50;98913.84;;;22.13;100.00
5238;BME280;2639;49.700;7.962;2023-08-17T09:59:54;98908.81;;;22.19;100.00
5238;BME280;2639;49.700;7.962;2023-08-17T10:00:58;98915.03;;;22.22;100.00
5238;BME280;2639;49.700;7.962;2023-08-17T10:02:03;98919.47;;;22.25;100.00
5238;BME280;2639;49.700;7.962;2023-08-17T10:03:06;98923.88;;;22.26;100.00
5238;BME280;2639;49.700;7.962;2023-08-17T10:04:11;98924.91;;;22.31;100.00
5238;BME280;2639;49.700;7.962;2023-08-17T10:05:19;98930.22;;;22.34;100.00
5238;BME280;2639;49.700;7.962;2023-08-17T10:06:26;98927.06;;;22.44;100.00
5238;BME280;2639;49.700;7.962;2023-08-17T10:07:31;98923.88;;;22.55;100.00
5238;BME280;2639;49.700;7.962;2023-08-17T10:08:41;98925.81;;;22.62;100.00
5238;BME280;2639;49.700;7.962;2023-08-17T10:09:48;98928.78;;;22.73;100.00
5238;BME280;2639;49.700;7.962;2023-08-17T10:10:52;98922.72;;;22.75;100.00
5238;BME280;2639;49.700;7.962;2023-08-17T10:11:57;98927.25;;;22.81;100.00
5238;BME280;2639;49.700;7.962;2023-08-17T10:13:09;98924.75;;;22.85;100.00
5238;BME280;2639;49.700;7.962;2023-08-17T10:14:15;98921.84;;;22.75;100.00
5238;BME280;2639;49.700;7.962;2023-08-17T10:15:20;98929.56;;;22.70;100.00
5238;BME280;2639;49.700;7.962;2023-08-17T10:16:26;98919.91;;;22.67;100.00
5238;BME280;2639;49.700;7.962;2023-08-17T10:17:39;98921.75;;;22.72;100.00
5238;BME280;2639;49.700;7.962;2023-08-17T10:18:45;98927.09;;;22.75;100.00
5238;BME280;2639;49.700;7.962;2023-08-17T10:19:53;98924.53;;;22.78;100.00
5238;BME280;2639;49.700;7.962;2023-08-17T10:21:00;98921.94;;;22.78;100.00
5238;BME280;2639;49.700;7.962;2023-08-17T10:22:08;98930.78;;;22.81;100.00
5238;BME280;2639;49.700;7.962;2023-08-17T10:23:15;98930.88;;;22.86;100.00
5238;BME280;2639;49.700;7.962;2023-08-17T10:24:19;98937.19;;;22.93;100.00
5238;BME280;2639;49.700;7.962;2023-08-17T10:25:23;98933.81;;;22.97;100.00
5238;BME280;2639;49.700;7.962;2023-08-17T10:26:29;98939.28;;;23.03;100.00
5238;BME280;2639;49.700;7.962;2023-08-17T10:27:32;98931.56;;;23.09;100.00
5238;BME280;2639;49.700;7.962;2023-08-17T10:28:38;98934.28;;;23.12;100.00
5238;BME280;2639;49.700;7.962;2023-08-17T10:29:41;98932.59;;;23.14;100.00
5238;BME280;2639;49.700;7.962;2023-08-17T10:30:45;98925.75;;;23.19;100.00
5238;BME280;2639;49.700;7.962;2023-08-17T10:31:49;98932.94;;;23.26;100.00
5238;BME280;2639;49.700;7.962;2023-08-17T10:32:53;98927.88;;;23.33;100.00
5238;BME280;2639;49.700;7.962;2023-08-17T10:33:56;98933.25;;;23.39;100.00
5238;BME280;2639;49.700;7.962;2023-08-17T10:34:59;98930.91;;;23.49;100.00
5238;BME280;2639;49.700;7.962;2023-08-17T10:36:02;98930.22;;;23.57;100.00
5238;BME280;2639;49.700;7.962;2023-08-17T10:37:04;98924.25;;;23.62;100.00
5238;BME280;2639;49.700;7.962;2023-08-17T10:38:07;98926.84;;;23.61;100.00
5238;BME280;2639;49.700;7.962;2023-08-17T10:39:19;98923.59;;;23.71;100.00
5238;BME280;2639;49.700;7.962;2023-08-17T10:40:26;98927.53;;;23.87;100.00
5238;BME280;2639;49.700;7.962;2023-08-17T10:41:29;98915.63;;;24.01;100.00
5238;BME280;2639;49.700;7.962;2023-08-17T10:42:33;98917.47;;;24.05;96.61
5238;BME280;2639;49.700;7.962;2023-08-17T10:43:54;98917.41;;;24.02;94.98
5238;BME280;2639;49.700;7.962;2023-08-17T10:44:57;98911.31;;;24.03;95.16
5238;BME280;2639;49.700;7.962;2023-08-17T10:46:14;98907.75;;;24.01;96.10
5238;BME280;2639;49.700;7.962;2023-08-17T10:47:19;98910.31;;;23.98;95.73
5238;BME280;2639;49.700;7.962;2023-08-17T10:48:25;98908.28;;;23.88;94.08
5238;BME280;2639;49.700;7.962;2023-08-17T10:49:28;98902.94;;;23.82;94.69
5238;BME280;2639;49.700;7.962;2023-08-17T10:50:31;98902.94;;;23.82;96.10
5238;BME280;2639;49.700;7.962;2023-08-17T10:51:34;98896.13;;;23.90;97.86
5238;BME280;2639;49.700;7.962;2023-08-17T10:52:37;98903.97;;;23.88;99.03
5238;BME280;2639;49.700;7.962;2023-08-17T10:53:43;98903.22;;;23.94;100.00
5238;BME280;2639;49.700;7.962;2023-08-17T10:54:47;98898.13;;;24.00;100.00
5238;BME280;2639;49.700;7.962;2023-08-17T10:55:49;98894.56;;;23.98;99.45
5238;BME280;2639;49.700;7.962;2023-08-17T10:56:53;98893.59;;;23.94;97.32
5238;BME280;2639;49.700;7.962;2023-08-17T10:57:55;98899.66;;;23.92;96.52
5238;BME280;2639;49.700;7.962;2023-08-17T10:59:01;98899.53;;;23.86;95.55
5238;BME280;2639;49.700;7.962;2023-08-17T11:00:06;98898.59;;;23.84;96.08
5238;BME280;2639;49.700;7.962;2023-08-17T11:01:09;98902.06;;;23.81;95.59
5238;BME280;2639;49.700;7.962;2023-08-17T11:02:13;98903.75;;;23.81;95.23
5238;BME280;2639;49.700;7.962;2023-08-17T11:03:18;98902.84;;;23.79;95.37
5238;BME280;2639;49.700;7.962;2023-08-17T11:04:21;98904.56;;;23.77;96.63
5238;BME280;2639;49.700;7.962;2023-08-17T11:05:35;98900.22;;;23.79;96.42
5238;BME280;2639;49.700;7.962;2023-08-17T11:06:38;98903.84;;;23.84;98.34
5238;BME280;2639;49.700;7.962;2023-08-17T11:07:42;98899.66;;;23.92;98.54
5238;BME280;2639;49.700;7.962;2023-08-17T11:08:52;98903.59;;;24.09;99.36
5238;BME280;2639;49.700;7.962;2023-08-17T11:09:57;98897.06;;;24.30;99.02
5238;BME280;2639;49.700;7.962;2023-08-17T11:11:04;98899.16;;;24.46;98.58
5238;BME280;2639;49.700;7.962;2023-08-17T11:12:24;98894.25;;;24.62;95.85
5238;BME280;2639;49.700;7.962;2023-08-17T11:13:28;98898.03;;;24.74;95.06
5238;BME280;2639;49.700;7.962;2023-08-17T11:14:34;98897.41;;;24.86;95.45
5238;BME280;2639;49.700;7.962;2023-08-17T11:15:38;98900.94;;;24.88;91.18
5238;BME280;2639;49.700;7.962;2023-08-17T11:16:40;98905.31;;;24.89;89.72
5238;BME280;2639;49.700;7.962;2023-08-17T11:17:43;98898.31;;;24.88;89.77
5238;BME280;2639;49.700;7.962;2023-08-17T11:18:45;98900.03;;;24.86;88.30
5238;BME280;2639;49.700;7.962;2023-08-17T11:19:50;98908.63;;;24.79;87.57
5238;BME280;2639;49.700;7.962;2023-08-17T11:20:53;98912.72;;;24.65;87.77
5238;BME280;2639;49.700;7.962;2023-08-17T11:21:56;98908.25;;;24.61;87.00
5238;BME280;2639;49.700;7.962;2023-08-17T11:22:59;98917.00;;;24.61;87.71
5238;BME280;2639;49.700;7.962;2023-08-17T11:24:01;98918.94;;;24.70;89.71